createdAt,value
2024-03-02T00:00:54.292Z,100.00
2024-03-02T00:03:22.208Z,100.00
2024-03-02T00:05:53.672Z,100.00
2024-03-02T00:08:26.930Z,100.00
2024-03-02T00:10:59.637Z,100.00
2024-03-02T00:13:27.552Z,100.00
2024-03-02T00:15:57.421Z,100.00
2024-03-02T00:18:27.802Z,100.00
2024-03-02T00:20:57.227Z,100.00
2024-03-02T00:23:26.357Z,100.00
2024-03-02T00:25:56.862Z,100.00
2024-03-02T00:28:26.414Z,100.00
2024-03-02T00:31:06.777Z,99.80
2024-03-02T00:33:35.898Z,96.71
2024-03-02T00:36:04.292Z,96.17
2024-03-02T00:38:32.423Z,100.00
2024-03-02T00:41:01.449Z,100.00
2024-03-02T00:43:47.462Z,100.00
2024-03-02T00:46:18.729Z,100.00
2024-03-02T00:48:55.481Z,100.00
2024-03-02T00:51:24.299Z,100.00
2024-03-02T00:53:53.500Z,100.00
2024-03-02T00:56:21.502Z,100.00
2024-03-02T00:58:49.099Z,100.00
2024-03-02T01:01:18.246Z,100.00
2024-03-02T01:03:45.931Z,100.00
2024-03-02T01:06:14.038Z,100.00
2024-03-02T01:08:41.676Z,100.00
2024-03-02T01:11:09.641Z,100.00
2024-03-02T01:13:37.461Z,100.00
2024-03-02T01:16:06.241Z,100.00
2024-03-02T01:18:35.318Z,98.45
2024-03-02T01:21:02.983Z,100.00
2024-03-02T01:23:30.643Z,100.00
2024-03-02T01:25:58.232Z,100.00
2024-03-02T01:28:25.797Z,100.00
2024-03-02T01:30:53.457Z,100.00
2024-03-02T01:33:22.423Z,100.00
2024-03-02T01:35:51.387Z,100.00
2024-03-02T01:38:18.916Z,100.00
2024-03-02T01:40:46.591Z,100.00
2024-03-02T01:43:14.195Z,100.00
2024-03-02T01:45:41.831Z,100.00
2024-03-02T01:48:10.008Z,100.00
2024-03-02T01:50:39.052Z,100.00
2024-03-02T01:53:07.939Z,100.00
2024-03-02T01:55:35.840Z,100.00
2024-03-02T01:58:03.883Z,100.00
2024-03-02T02:00:31.853Z,100.00
2024-03-02T02:02:59.859Z,100.00
2024-03-02T02:05:27.410Z,100.00
2024-03-02T02:07:55.106Z,100.00
2024-03-02T02:10:23.943Z,100.00
2024-03-02T02:12:51.582Z,100.00
2024-03-02T02:15:27.051Z,100.00
2024-03-02T02:17:54.806Z,100.00
2024-03-02T02:20:22.343Z,100.00
2024-03-02T02:22:58.819Z,100.00
2024-03-02T02:25:26.841Z,100.00
2024-03-02T02:27:54.979Z,100.00
2024-03-02T02:30:24.232Z,100.00
2024-03-02T02:32:51.969Z,100.00
2024-03-02T02:35:19.687Z,100.00
2024-03-02T02:37:47.639Z,100.00
2024-03-02T02:40:17.254Z,100.00
2024-03-02T02:42:44.862Z,100.00
2024-03-02T02:45:14.297Z,100.00
2024-03-02T02:47:42.588Z,100.00
2024-03-02T02:50:10.857Z,100.00
2024-03-02T02:52:41.040Z,100.00
2024-03-02T02:55:09.987Z,100.00
2024-03-02T02:57:40.898Z,100.00
2024-03-02T03:00:15.098Z,100.00
2024-03-02T03:02:43.709Z,100.00
2024-03-02T03:05:13.250Z,100.00
2024-03-02T03:07:41.754Z,100.00
2024-03-02T03:10:10.017Z,100.00
2024-03-02T03:12:38.963Z,100.00
2024-03-02T03:15:08.191Z,100.00
2024-03-02T03:17:36.410Z,100.00
2024-03-02T03:20:05.259Z,100.00
2024-03-02T03:22:33.140Z,100.00
2024-03-02T03:25:00.978Z,100.00
2024-03-02T03:27:28.760Z,100.00
2024-03-02T03:29:57.696Z,100.00
2024-03-02T03:32:25.999Z,100.00
2024-03-02T03:34:53.673Z,100.00
2024-03-02T03:37:21.328Z,100.00
2024-03-02T03:39:49.070Z,100.00
2024-03-02T03:42:17.163Z,100.00
2024-03-02T03:44:44.760Z,100.00
2024-03-02T03:47:13.686Z,100.00
2024-03-02T03:49:41.255Z,100.00
2024-03-02T03:52:08.851Z,100.00
2024-03-02T03:54:38.244Z,100.00
2024-03-02T03:57:06.113Z,100.00
2024-03-02T03:59:34.233Z,100.00
2024-03-02T04:02:01.812Z,100.00
2024-03-02T04:04:31.104Z,100.00
2024-03-02T04:06:58.742Z,100.00
2024-03-02T04:09:26.723Z,100.00
2024-03-02T04:11:54.313Z,100.00
2024-03-02T04:14:21.886Z,100.00
2024-03-02T04:16:49.529Z,100.00
2024-03-02T04:19:17.124Z,100.00
2024-03-02T04:21:45.989Z,100.00
2024-03-02T04:24:13.563Z,100.00
2024-03-02T04:26:41.204Z,100.00
2024-03-02T04:29:08.911Z,100.00
2024-03-02T04:31:36.550Z,100.00
2024-03-02T04:34:04.320Z,100.00
2024-03-02T04:36:32.048Z,100.00
2024-03-02T04:39:00.902Z,100.00
2024-03-02T04:41:28.881Z,100.00
2024-03-02T04:43:56.914Z,100.00
2024-03-02T04:46:25.897Z,100.00
2024-03-02T04:48:56.918Z,100.00
2024-03-02T04:51:24.669Z,100.00
2024-03-02T04:53:52.273Z,100.00
2024-03-02T04:56:45.480Z,100.00
2024-03-02T04:59:13.140Z,100.00
2024-03-02T05:01:40.701Z,100.00
2024-03-02T05:04:08.220Z,100.00
2024-03-02T05:06:35.832Z,100.00
2024-03-02T05:09:03.395Z,100.00
2024-03-02T05:11:57.645Z,100.00
2024-03-02T05:14:24.256Z,100.00
2024-03-02T05:16:51.821Z,100.00
2024-03-02T05:19:19.424Z,100.00
2024-03-02T05:21:47.031Z,100.00
2024-03-02T05:24:14.619Z,100.00
2024-03-02T05:26:43.457Z,100.00
2024-03-02T05:29:11.089Z,100.00
2024-03-02T05:31:38.622Z,100.00
2024-03-02T05:34:06.578Z,100.00
2024-03-02T05:36:34.212Z,100.00
2024-03-02T05:39:02.359Z,100.00
2024-03-02T05:41:29.904Z,100.00
2024-03-02T05:43:58.789Z,100.00
2024-03-02T05:46:26.327Z,100.00
2024-03-02T05:48:53.885Z,100.00
2024-03-02T05:51:21.515Z,100.00
2024-03-02T05:53:49.058Z,100.00
2024-03-02T05:56:16.610Z,100.00
2024-03-02T05:58:58.877Z,100.00
2024-03-02T06:01:29.868Z,100.00
2024-03-02T06:03:57.921Z,100.00
2024-03-02T06:06:25.685Z,100.00
2024-03-02T06:08:53.521Z,100.00
2024-03-02T06:11:21.712Z,100.00
2024-03-02T06:13:49.344Z,100.00
2024-03-02T06:16:16.928Z,100.00
2024-03-02T06:18:45.798Z,100.00
2024-03-02T06:21:13.422Z,100.00
2024-03-02T06:23:40.966Z,100.00
2024-03-02T06:26:08.690Z,100.00
2024-03-02T06:28:36.347Z,100.00
2024-03-02T06:31:04.308Z,100.00
2024-03-02T06:33:31.977Z,100.00
2024-03-02T06:36:00.847Z,100.00
2024-03-02T06:38:28.458Z,100.00
2024-03-02T06:40:56.217Z,100.00
2024-03-02T06:43:24.335Z,100.00
2024-03-02T06:45:52.003Z,100.00
2024-03-02T06:48:21.245Z,100.00
2024-03-02T06:50:49.088Z,100.00
2024-03-02T06:53:18.925Z,100.00
2024-03-02T06:55:46.578Z,100.00
2024-03-02T06:58:14.238Z,100.00
2024-03-02T07:00:41.756Z,100.00
2024-03-02T07:03:09.437Z,100.00
2024-03-02T07:05:37.241Z,100.00
2024-03-02T07:08:06.286Z,100.00
2024-03-02T07:10:35.179Z,100.00
2024-03-02T07:13:02.961Z,100.00
2024-03-02T07:15:55.754Z,100.00
2024-03-02T07:18:23.369Z,100.00
2024-03-02T07:20:51.007Z,100.00
2024-03-02T07:23:18.646Z,100.00
2024-03-02T07:28:18.233Z,100.00
2024-03-02T07:30:45.772Z,100.00
2024-03-02T07:33:13.296Z,100.00
2024-03-02T07:35:40.824Z,100.00
2024-03-02T07:38:08.964Z,100.00
2024-03-02T07:40:36.521Z,100.00
2024-03-02T07:43:05.732Z,100.00
2024-03-02T07:45:33.288Z,100.00
2024-03-02T07:48:00.976Z,100.00
2024-03-02T07:50:28.566Z,100.00
2024-03-02T07:52:56.128Z,100.00
2024-03-02T07:55:24.905Z,100.00
2024-03-02T07:57:52.718Z,100.00
2024-03-02T08:00:21.791Z,100.00
2024-03-02T08:02:49.372Z,100.00
2024-03-02T08:05:17.017Z,100.00
2024-03-02T08:07:45.974Z,100.00
2024-03-02T08:10:13.931Z,100.00
2024-03-02T08:12:41.790Z,100.00
2024-03-02T08:15:09.819Z,100.00
2024-03-02T08:17:38.835Z,100.00
2024-03-02T08:20:09.151Z,100.00
2024-03-02T08:22:36.759Z,100.00
2024-03-02T08:25:04.740Z,100.00
2024-03-02T08:27:33.317Z,100.00
2024-03-02T08:30:00.961Z,100.00
2024-03-02T08:32:28.643Z,100.00
2024-03-02T08:34:57.564Z,100.00
2024-03-02T08:37:25.073Z,100.00
2024-03-02T08:39:52.692Z,100.00
2024-03-02T08:42:20.463Z,100.00
2024-03-02T08:44:48.022Z,100.00
2024-03-02T08:47:15.743Z,100.00
2024-03-02T08:49:43.327Z,100.00
2024-03-02T08:52:12.244Z,100.00
2024-03-02T08:54:39.915Z,100.00
2024-03-02T08:57:08.298Z,100.00
2024-03-02T08:59:36.110Z,100.00
2024-03-02T09:02:03.814Z,100.00
2024-03-02T09:04:34.904Z,100.00
2024-03-02T09:07:03.109Z,100.00
2024-03-02T09:09:33.105Z,100.00
2024-03-02T09:12:00.874Z,100.00
2024-03-02T09:14:28.484Z,100.00
2024-03-02T09:16:56.164Z,100.00
2024-03-02T09:19:23.717Z,100.00
2024-03-02T09:21:51.713Z,100.00
2024-03-02T09:24:19.308Z,100.00
2024-03-02T09:26:48.183Z,100.00
2024-03-02T09:29:15.853Z,100.00
2024-03-02T09:31:43.588Z,100.00
2024-03-02T09:34:11.525Z,100.00
2024-03-02T09:36:39.197Z,100.00
2024-03-02T09:39:06.973Z,100.00
2024-03-02T09:41:35.429Z,100.00
2024-03-02T09:44:04.773Z,100.00
2024-03-02T09:46:32.530Z,100.00
2024-03-02T09:49:00.737Z,100.00
2024-03-02T09:51:28.436Z,100.00
2024-03-02T09:54:06.333Z,100.00
2024-03-02T09:56:40.811Z,100.00
2024-03-02T09:59:09.866Z,100.00
2024-03-02T10:01:37.419Z,100.00
2024-03-02T10:04:07.376Z,100.00
2024-03-02T10:06:34.978Z,100.00
2024-03-02T10:09:02.533Z,100.00
2024-03-02T10:11:32.293Z,99.40
2024-03-02T10:14:12.185Z,100.00
2024-03-02T10:16:42.054Z,98.69
2024-03-02T10:19:18.063Z,100.00
2024-03-02T10:21:45.810Z,100.00
2024-03-02T10:24:13.853Z,100.00
2024-03-02T10:26:42.306Z,98.28
2024-03-02T10:29:11.443Z,98.17
2024-03-02T10:31:40.135Z,99.14
2024-03-02T10:34:08.226Z,97.25
2024-03-02T10:36:36.908Z,97.51
2024-03-02T10:39:05.156Z,97.85
2024-03-02T10:41:35.704Z,99.24
2024-03-02T10:44:05.179Z,98.28
2024-03-02T10:46:35.167Z,94.83
2024-03-02T10:49:07.639Z,96.88
2024-03-02T10:51:37.673Z,96.13
2024-03-02T10:54:07.265Z,91.25
2024-03-02T10:56:37.722Z,96.01
2024-03-02T10:59:18.613Z,93.98
2024-03-02T11:01:49.729Z,93.74
2024-03-02T11:04:19.880Z,95.87
2024-03-02T11:06:50.984Z,93.69
2024-03-02T11:09:21.992Z,93.33
2024-03-02T11:11:58.365Z,92.36
2024-03-02T11:14:27.155Z,91.27
2024-03-02T11:16:56.363Z,93.16
2024-03-02T11:19:25.498Z,90.94
2024-03-02T11:21:53.852Z,92.29
2024-03-02T11:24:37.420Z,91.90
2024-03-02T11:27:12.544Z,93.41
2024-03-02T11:29:47.535Z,92.04
2024-03-02T11:32:22.334Z,92.14
2024-03-02T11:34:51.452Z,90.45
2024-03-02T11:37:21.317Z,92.27
2024-03-02T11:39:52.300Z,92.21
2024-03-02T11:42:20.257Z,91.94
2024-03-02T11:44:49.180Z,88.30
2024-03-02T11:47:18.726Z,90.05
2024-03-02T11:49:51.239Z,92.67
2024-03-02T11:52:20.428Z,92.27
2024-03-02T11:54:49.830Z,87.97
2024-03-02T11:57:19.078Z,90.30
2024-03-02T11:59:46.598Z,87.26
2024-03-02T12:02:19.290Z,89.98
2024-03-02T12:04:49.870Z,87.45
2024-03-02T12:07:21.742Z,87.21
2024-03-02T12:09:49.428Z,89.52
2024-03-02T12:12:19.911Z,85.82
2024-03-02T12:14:56.134Z,85.85
2024-03-02T12:17:24.269Z,87.96
2024-03-02T12:19:53.825Z,82.65
2024-03-02T12:22:21.360Z,83.03
2024-03-02T12:24:49.296Z,84.54
2024-03-02T12:27:17.598Z,87.75
2024-03-02T12:29:45.292Z,84.36
2024-03-02T12:32:13.000Z,85.25
2024-03-02T12:34:41.666Z,87.60
2024-03-02T12:37:14.617Z,82.24
2024-03-02T12:39:42.349Z,87.49
2024-03-02T12:42:09.991Z,81.02
2024-03-02T12:44:37.734Z,85.99
2024-03-02T12:47:05.658Z,83.83
2024-03-02T12:49:33.542Z,85.55
2024-03-02T12:52:01.283Z,84.25
2024-03-02T12:54:30.259Z,81.75
2024-03-02T12:56:58.964Z,84.14
2024-03-02T12:59:27.788Z,83.72
2024-03-02T13:01:58.378Z,77.49
2024-03-02T13:04:26.737Z,83.58
2024-03-02T13:06:55.489Z,83.60
2024-03-02T13:09:23.309Z,82.24
2024-03-02T13:11:52.515Z,78.75
2024-03-02T13:14:20.445Z,82.72
2024-03-02T13:16:49.230Z,77.63
2024-03-02T13:19:16.924Z,80.35
2024-03-02T13:21:44.809Z,80.31
2024-03-02T13:24:12.391Z,83.77
2024-03-02T13:26:41.527Z,82.42
2024-03-02T13:29:10.532Z,84.19
2024-03-02T13:31:38.079Z,81.54
2024-03-02T13:34:05.807Z,83.42
2024-03-02T13:36:33.447Z,79.51
2024-03-02T13:39:01.051Z,80.77
2024-03-02T13:41:28.837Z,83.06
2024-03-02T13:43:56.399Z,82.70
2024-03-02T13:46:25.289Z,78.16
2024-03-02T13:48:53.578Z,82.45
2024-03-02T13:51:21.133Z,80.05
2024-03-02T13:53:48.695Z,81.46
2024-03-02T13:56:16.292Z,76.88
2024-03-02T13:58:47.132Z,79.11
2024-03-02T14:01:15.110Z,81.62
2024-03-02T14:03:44.202Z,74.99
2024-03-02T14:06:11.780Z,79.46
2024-03-02T14:08:39.378Z,80.76
2024-03-02T14:11:06.950Z,81.18
2024-03-02T14:13:34.539Z,80.31
2024-03-02T14:16:02.223Z,79.49
2024-03-02T14:18:30.050Z,78.14
2024-03-02T14:20:58.927Z,81.52
2024-03-02T14:23:29.260Z,75.66
2024-03-02T14:25:56.808Z,77.48
2024-03-02T14:28:43.823Z,80.93
2024-03-02T14:31:11.881Z,86.23
2024-03-02T14:33:39.618Z,84.43
2024-03-02T14:36:09.302Z,82.35
2024-03-02T14:38:36.911Z,87.30
2024-03-02T14:41:04.730Z,82.86
2024-03-02T14:43:32.541Z,82.29
2024-03-02T14:46:00.650Z,82.90
2024-03-02T14:48:28.378Z,84.51
2024-03-02T14:50:55.936Z,84.91
2024-03-02T14:53:24.904Z,85.25
2024-03-02T14:55:52.484Z,86.34
2024-03-02T14:58:20.504Z,85.82
2024-03-02T15:00:48.253Z,85.56
2024-03-02T15:03:16.110Z,87.53
2024-03-02T15:05:43.709Z,84.95
2024-03-02T15:08:11.646Z,88.21
2024-03-02T15:10:41.918Z,86.61
2024-03-02T15:13:10.729Z,86.01
2024-03-02T15:15:38.346Z,86.04
2024-03-02T15:18:06.855Z,86.60
2024-03-02T15:20:34.740Z,86.62
2024-03-02T15:23:01.320Z,88.33
2024-03-02T15:25:28.884Z,86.18
2024-03-02T15:27:58.327Z,87.43
2024-03-02T15:30:25.915Z,85.62
2024-03-02T15:32:53.482Z,87.29
2024-03-02T15:35:21.110Z,86.79
2024-03-02T15:37:48.683Z,87.00
2024-03-02T15:40:16.268Z,86.58
2024-03-02T15:42:44.073Z,87.17
2024-03-02T15:45:12.999Z,87.52
2024-03-02T15:47:41.108Z,87.39
2024-03-02T15:50:09.502Z,85.43
2024-03-02T15:52:37.318Z,87.00
2024-03-02T15:55:07.356Z,87.92
2024-03-02T15:57:35.356Z,86.45
2024-03-02T16:00:02.980Z,87.90
2024-03-02T16:02:31.858Z,86.94
2024-03-02T16:04:59.427Z,88.26
2024-03-02T16:07:26.972Z,89.87
2024-03-02T16:09:54.550Z,90.37
2024-03-02T16:12:22.883Z,91.95
2024-03-02T16:14:50.476Z,88.59
2024-03-02T16:17:18.097Z,87.64
2024-03-02T16:19:48.610Z,88.77
2024-03-02T16:22:16.302Z,89.96
2024-03-02T16:24:43.848Z,88.53
2024-03-02T16:27:11.456Z,88.76
2024-03-02T16:29:39.359Z,88.54
2024-03-02T16:32:07.362Z,88.37
2024-03-02T16:34:34.940Z,89.47
2024-03-02T16:37:04.518Z,88.52
2024-03-02T16:39:32.562Z,88.46
2024-03-02T16:42:00.372Z,85.97
2024-03-02T16:44:27.937Z,85.91
2024-03-02T16:46:55.526Z,87.66
2024-03-02T16:49:23.106Z,85.88
2024-03-02T16:51:50.749Z,87.16
2024-03-02T16:54:19.631Z,83.51
2024-03-02T16:56:47.144Z,87.69
2024-03-02T16:59:14.739Z,85.29
2024-03-02T17:01:42.338Z,87.58
2024-03-02T17:04:10.983Z,86.26
2024-03-02T17:06:38.735Z,88.93
2024-03-02T17:09:06.536Z,85.54
2024-03-02T17:11:36.149Z,88.62
2024-03-02T17:14:04.734Z,87.79
2024-03-02T17:16:32.303Z,87.69
2024-03-02T17:19:00.000Z,85.05
2024-03-02T17:21:28.021Z,88.63
2024-03-02T17:23:55.589Z,87.93
2024-03-02T17:26:23.165Z,89.78
2024-03-02T17:28:52.042Z,92.08
2024-03-02T17:31:19.569Z,92.29
2024-03-02T17:33:47.153Z,92.44
2024-03-02T17:36:15.479Z,92.45
2024-03-02T17:38:43.045Z,94.88
2024-03-02T17:41:11.715Z,98.06
2024-03-02T17:43:40.416Z,99.23
2024-03-02T17:46:09.344Z,100.00
2024-03-02T17:48:36.978Z,98.49
2024-03-02T17:51:08.221Z,100.00
2024-03-02T17:53:35.764Z,100.00
2024-03-02T17:56:03.298Z,97.21
2024-03-02T17:58:30.860Z,100.00
2024-03-02T18:00:58.490Z,99.15
2024-03-02T18:03:27.382Z,97.95
2024-03-02T18:05:55.217Z,97.49
2024-03-02T18:08:22.828Z,98.32
2024-03-02T18:10:50.533Z,100.00
2024-03-02T18:13:18.199Z,100.00
2024-03-02T18:15:47.308Z,100.00
2024-03-02T18:18:15.987Z,100.00
2024-03-02T18:20:46.067Z,100.00
2024-03-02T18:23:13.960Z,100.00
2024-03-02T18:25:47.171Z,100.00
2024-03-02T18:28:15.008Z,99.15
2024-03-02T18:30:43.024Z,98.97
2024-03-02T18:33:10.594Z,100.00
2024-03-02T18:35:38.157Z,100.00
2024-03-02T18:38:07.078Z,98.39
2024-03-02T18:40:34.799Z,99.49
2024-03-02T18:43:03.309Z,100.00
2024-03-02T18:45:31.079Z,100.00
2024-03-02T18:48:01.225Z,100.00
2024-03-02T18:50:30.649Z,100.00
2024-03-02T18:52:58.322Z,100.00
2024-03-02T18:55:27.825Z,100.00
2024-03-02T18:57:56.440Z,100.00
2024-03-02T19:00:24.068Z,100.00
2024-03-02T19:02:51.637Z,98.86
2024-03-02T19:05:19.196Z,99.77
2024-03-02T19:07:46.784Z,99.55
2024-03-02T19:10:14.403Z,98.36
2024-03-02T19:12:44.149Z,99.16
2024-03-02T19:15:12.903Z,99.08
2024-03-02T19:17:40.671Z,98.07
2024-03-02T19:20:11.788Z,98.34
2024-03-02T19:25:14.547Z,98.71
2024-03-02T19:27:43.694Z,98.98
2024-03-02T19:30:12.479Z,99.87
2024-03-02T19:32:40.086Z,100.00
2024-03-02T19:35:08.696Z,100.00
2024-03-02T19:37:37.181Z,100.00
2024-03-02T19:40:06.501Z,99.81
2024-03-02T19:42:35.874Z,98.89
2024-03-02T19:45:06.405Z,100.00
2024-03-02T19:47:34.506Z,99.42
2024-03-02T19:50:02.100Z,100.00
2024-03-02T19:52:29.671Z,99.35
2024-03-02T19:54:57.848Z,100.00
2024-03-02T19:57:26.364Z,100.00
2024-03-02T19:59:54.011Z,100.00
2024-03-02T20:02:27.904Z,100.00
2024-03-02T20:04:55.502Z,100.00
2024-03-02T20:07:23.093Z,100.00
2024-03-02T20:09:51.633Z,100.00
2024-03-02T20:12:19.785Z,100.00
2024-03-02T20:14:47.398Z,100.00
2024-03-02T20:17:16.034Z,100.00
2024-03-02T20:19:46.214Z,100.00
2024-03-02T20:22:14.179Z,100.00
2024-03-02T20:24:41.873Z,100.00
2024-03-02T20:27:09.418Z,100.00
2024-03-02T20:29:36.984Z,100.00
2024-03-02T20:32:04.840Z,100.00
2024-03-02T20:34:32.389Z,100.00
2024-03-02T20:37:02.030Z,100.00
2024-03-02T20:39:30.389Z,100.00
2024-03-02T20:41:57.997Z,100.00
2024-03-02T20:44:27.114Z,100.00
2024-03-02T20:46:55.302Z,100.00
2024-03-02T20:49:24.723Z,100.00
2024-03-02T20:51:52.453Z,100.00
2024-03-02T20:54:21.483Z,100.00
2024-03-02T20:56:49.970Z,100.00
2024-03-02T20:59:18.749Z,100.00
2024-03-02T21:01:49.058Z,100.00
2024-03-02T21:04:16.783Z,100.00
2024-03-02T21:06:44.803Z,100.00
2024-03-02T21:09:12.443Z,100.00
2024-03-02T21:11:41.814Z,100.00
2024-03-02T21:14:09.797Z,100.00
2024-03-02T21:16:37.464Z,100.00
2024-03-02T21:19:05.056Z,100.00
2024-03-02T21:21:32.804Z,100.00
2024-03-02T21:23:59.417Z,100.00
2024-03-02T21:26:27.444Z,100.00
2024-03-02T21:28:56.430Z,100.00
2024-03-02T21:31:23.965Z,100.00
2024-03-02T21:33:51.584Z,100.00
2024-03-02T21:36:19.109Z,100.00
2024-03-02T21:38:46.656Z,100.00
2024-03-02T21:41:14.291Z,100.00
2024-03-02T21:43:42.895Z,100.00
2024-03-02T21:46:13.758Z,100.00
2024-03-02T21:48:41.666Z,100.00
2024-03-02T21:51:09.642Z,100.00
2024-03-02T21:53:38.019Z,100.00
2024-03-02T21:56:06.579Z,100.00
2024-03-02T21:58:34.102Z,100.00
2024-03-02T22:01:01.790Z,100.00
2024-03-02T22:03:30.746Z,100.00
2024-03-02T22:05:58.297Z,100.00
2024-03-02T22:08:28.479Z,100.00
2024-03-02T22:10:56.431Z,100.00
2024-03-02T22:13:24.071Z,100.00
2024-03-02T22:15:51.713Z,100.00
2024-03-02T22:18:19.925Z,100.00
2024-03-02T22:20:48.843Z,100.00
2024-03-02T22:23:16.609Z,100.00
2024-03-02T22:25:44.199Z,100.00
2024-03-02T22:28:11.818Z,100.00
2024-03-02T22:30:39.427Z,100.00
2024-03-02T22:33:07.074Z,100.00
2024-03-02T22:35:34.674Z,100.00
2024-03-02T22:38:03.516Z,100.00
2024-03-02T22:40:31.817Z,100.00
2024-03-02T22:42:59.880Z,100.00
2024-03-02T22:45:27.616Z,100.00
2024-03-02T22:47:56.070Z,100.00
2024-03-02T22:50:24.666Z,100.00
2024-03-02T22:52:52.448Z,100.00
2024-03-02T22:55:21.636Z,100.00
2024-03-02T22:57:49.277Z,100.00
2024-03-02T23:00:35.077Z,100.00
2024-03-02T23:03:02.791Z,100.00
2024-03-02T23:05:30.982Z,100.00
2024-03-02T23:07:58.607Z,100.00
2024-03-02T23:10:27.554Z,100.00
2024-03-02T23:12:55.137Z,100.00
2024-03-02T23:15:22.723Z,100.00
2024-03-02T23:17:50.889Z,100.00
2024-03-02T23:20:18.586Z,100.00
2024-03-02T23:22:47.027Z,100.00
2024-03-02T23:25:15.620Z,100.00
2024-03-02T23:27:44.663Z,100.00
2024-03-02T23:30:12.640Z,100.00
2024-03-02T23:32:40.256Z,100.00
2024-03-02T23:35:08.357Z,100.00
2024-03-02T23:37:35.926Z,100.00
2024-03-02T23:40:34.257Z,100.00
2024-03-02T23:43:02.400Z,100.00
2024-03-02T23:45:29.995Z,100.00
2024-03-02T23:47:57.567Z,100.00
2024-03-02T23:50:25.386Z,100.00
2024-03-02T23:52:52.990Z,100.00
2024-03-02T23:55:20.889Z,100.00
2024-03-02T23:57:48.711Z,100.00
